Time;durP1;ratioP1;P1;durP2;ratioP2;P2;SDS_P1;SDS_P2;PMS_P1;PMS_P2;Temp;Humidity;BMP_temperature;BMP_pressure;BME280_temperature;BME280_humidity;BME280_pressure;Samples;Min_cycle;Max_cycle;Signal;HPM_P1;HPM_P2
2022/05/15 00:02:40;;;;;;;12.75;4.93;;;14.00;56.10;;;;;;5013436;28;20081;-81
2022/05/15 00:05:07;;;;;;;13.10;4.88;;;14.10;56.10;;;;;;4999842;28;20089;-81
2022/05/15 00:07:33;;;;;;;10.88;4.22;;;14.00;56.10;;;;;;4963024;28;20046;-82
2022/05/15 00:09:58;;;;;;;15.75;4.72;;;14.00;56.10;;;;;;5012131;28;20104;-81
2022/05/15 00:12:24;;;;;;;10.15;4.05;;;14.00;56.10;;;;;;4995933;28;20128;-81
2022/05/15 00:14:49;;;;;;;11.75;4.32;;;14.00;56.20;;;;;;4987872;28;20074;-82
2022/05/15 00:17:16;;;;;;;9.52;4.45;;;14.00;56.20;;;;;;4988889;28;20050;-81
2022/05/15 00:19:42;;;;;;;11.90;4.47;;;13.90;56.10;;;;;;5018811;28;20066;-81
2022/05/15 00:22:08;;;;;;;12.38;4.05;;;13.90;56.20;;;;;;5013048;28;20053;-80
2022/05/15 00:24:35;;;;;;;10.05;4.47;;;13.90;56.20;;;;;;5000626;28;20066;-80
2022/05/15 00:27:00;;;;;;;10.27;4.50;;;13.90;56.20;;;;;;4998990;28;20041;-81
2022/05/15 00:29:26;;;;;;;10.95;4.65;;;13.90;56.30;;;;;;4994777;28;20053;-80
2022/05/15 00:31:52;;;;;;;9.05;3.42;;;13.80;56.20;;;;;;4998081;28;20099;-81
2022/05/15 00:34:18;;;;;;;9.45;3.72;;;13.80;56.10;;;;;;4995995;28;20436;-81
2022/05/15 00:36:43;;;;;;;12.15;4.30;;;13.80;56.10;;;;;;5000172;28;20070;-80
2022/05/15 00:39:10;;;;;;;9.85;3.55;;;13.80;56.10;;;;;;5012636;28;20065;-81
2022/05/15 00:41:39;;;;;;;11.43;4.22;;;13.70;56.10;;;;;;5013367;28;20052;-80
2022/05/15 00:44:07;;;;;;;11.82;3.75;;;13.70;56.00;;;;;;4994808;28;20401;-80
2022/05/15 00:46:36;;;;;;;11.20;4.10;;;13.70;56.10;;;;;;4995182;28;20034;-80
2022/05/15 00:49:06;;;;;;;8.57;4.05;;;13.70;56.20;;;;;;4977903;28;20433;-81
2022/05/15 00:51:53;;;;;;;10.40;3.90;;;13.60;56.10;;;;;;4994710;28;20046;-81
2022/05/15 00:54:36;;;;;;;12.30;4.15;;;13.60;56.10;;;;;;5003064;28;20410;-81
2022/05/15 00:57:12;;;;;;;7.35;3.10;;;13.60;56.30;;;;;;4994281;28;20061;-80
2022/05/15 00:59:47;;;;;;;13.13;4.63;;;13.50;56.20;;;;;;4999843;28;20050;-80
2022/05/15 01:02:14;;;;;;;11.07;4.07;;;13.50;56.30;;;;;;4995330;28;20039;-80
2022/05/15 01:04:40;;;;;;;12.75;4.35;;;13.50;56.40;;;;;;4978160;28;20050;-80
2022/05/15 01:07:06;;;;;;;8.80;3.72;;;13.50;56.40;;;;;;4994964;28;20046;-80
2022/05/15 01:09:32;;;;;;;8.77;3.47;;;13.40;56.40;;;;;;4994814;28;20424;-80
2022/05/15 01:12:00;;;;;;;6.63;3.10;;;13.40;56.40;;;;;;4994027;28;20053;-80
2022/05/15 01:14:26;;;;;;;10.38;4.00;;;13.40;56.50;;;;;;4997025;28;20050;-80
2022/05/15 01:16:52;;;;;;;11.35;3.55;;;13.30;56.40;;;;;;5013730;28;20560;-80
2022/05/15 01:19:32;;;;;;;7.95;3.30;;;13.40;56.40;;;;;;5000379;28;20034;-80
2022/05/15 01:21:59;;;;;;;11.05;3.85;;;13.30;56.40;;;;;;5004468;28;20076;-80
2022/05/15 01:24:25;;;;;;;10.05;3.47;;;13.30;56.40;;;;;;5013502;28;20473;-79
2022/05/15 01:26:51;;;;;;;9.02;3.83;;;13.20;56.40;;;;;;4999816;28;20046;-80
2022/05/15 01:29:17;;;;;;;7.88;3.42;;;13.30;56.40;;;;;;5002495;28;20053;-80
2022/05/15 01:31:43;;;;;;;8.98;3.70;;;13.20;56.40;;;;;;5014413;28;20539;-80
2022/05/15 01:34:10;;;;;;;9.85;3.65;;;13.20;56.50;;;;;;5012461;28;20049;-80
2022/05/15 01:36:37;;;;;;;9.25;3.13;;;13.10;56.50;;;;;;4999261;28;20041;-80
2022/05/15 01:39:04;;;;;;;8.75;3.22;;;13.10;56.50;;;;;;5006634;28;20050;-79
2022/05/15 01:41:30;;;;;;;7.32;3.28;;;13.10;56.60;;;;;;4987587;28;20038;-81
2022/05/15 01:43:55;;;;;;;9.50;3.83;;;13.00;56.60;;;;;;5014722;28;20504;-81
2022/05/15 01:46:24;;;;;;;5.93;3.25;;;13.00;56.70;;;;;;5019600;28;20403;-81
2022/05/15 01:48:52;;;;;;;8.60;3.20;;;13.00;56.70;;;;;;5008069;28;20116;-80
2022/05/15 01:51:19;;;;;;;15.35;4.45;;;13.00;56.80;;;;;;4998845;28;20035;-81
2022/05/15 01:53:44;;;;;;;7.82;3.28;;;12.90;56.80;;;;;;4981091;28;20050;-80
2022/05/15 01:56:11;;;;;;;8.73;3.58;;;13.00;56.90;;;;;;4998179;28;20379;-81
2022/05/15 01:58:38;;;;;;;10.95;3.28;;;12.90;56.90;;;;;;4997706;28;20042;-80
2022/05/15 02:01:04;;;;;;;8.25;3.13;;;12.90;56.90;;;;;;4985845;28;20054;-81
2022/05/15 02:03:29;;;;;;;9.55;3.55;;;12.90;57.00;;;;;;4994638;28;20129;-80
2022/05/15 02:05:55;;;;;;;8.57;3.70;;;12.90;57.00;;;;;;5012163;28;20112;-80
2022/05/15 02:08:21;;;;;;;7.70;2.97;;;12.80;57.00;;;;;;5003970;28;20532;-81
2022/05/15 02:10:47;;;;;;;9.10;3.85;;;12.80;57.00;;;;;;4998866;28;20084;-80
2022/05/15 02:13:12;;;;;;;8.68;3.40;;;12.80;57.10;;;;;;4997616;28;20056;-80
2022/05/15 02:15:38;;;;;;;8.35;3.75;;;12.80;57.10;;;;;;4998178;28;20088;-80
2022/05/15 02:18:04;;;;;;;9.35;3.03;;;12.70;57.10;;;;;;5005414;28;20529;-80
2022/05/15 02:20:31;;;;;;;9.43;3.13;;;12.80;57.10;;;;;;5014854;28;20080;-80
2022/05/15 02:22:57;;;;;;;6.25;2.90;;;12.70;57.10;;;;;;5011347;28;20054;-80
2022/05/15 02:25:23;;;;;;;8.90;2.92;;;12.80;57.10;;;;;;5011907;28;20042;-80
2022/05/15 02:27:48;;;;;;;8.40;3.03;;;12.70;57.10;;;;;;5016394;28;20168;-79
2022/05/15 02:30:15;;;;;;;7.97;3.85;;;12.70;57.10;;;;;;5015205;28;20539;-80
2022/05/15 02:32:41;;;;;;;7.30;2.83;;;12.70;57.20;;;;;;5015326;28;20148;-80
2022/05/15 02:35:09;;;;;;;7.65;3.55;;;12.70;57.30;;;;;;5011413;28;20136;-80
2022/05/15 02:37:35;;;;;;;8.18;3.17;;;12.60;57.30;;;;;;5016211;28;20169;-81
2022/05/15 02:40:02;;;;;;;7.32;3.35;;;12.60;57.30;;;;;;5002819;28;20042;-81
2022/05/15 02:42:27;;;;;;;9.10;3.63;;;12.60;57.30;;;;;;4979066;28;20090;-81
2022/05/15 02:44:53;;;;;;;9.90;3.83;;;12.60;57.30;;;;;;4979978;28;20089;-80
2022/05/15 02:47:19;;;;;;;9.75;3.78;;;12.50;57.20;;;;;;4997609;28;20397;-81
2022/05/15 02:52:29;;;;;;;8.48;3.65;;;12.50;57.30;;;;;;5015938;28;20054;-81
2022/05/15 02:54:54;;;;;;;8.68;3.13;;;12.50;57.30;;;;;;4996647;28;20385;-81
2022/05/15 02:57:20;;;;;;;8.25;3.67;;;12.50;57.30;;;;;;5009106;28;20085;-81
2022/05/15 02:59:46;;;;;;;7.88;3.15;;;12.40;57.30;;;;;;4996854;28;20034;-81
2022/05/15 03:02:11;;;;;;;9.05;3.13;;;12.40;57.30;;;;;;4996292;28;20053;-81
2022/05/15 03:04:37;;;;;;;8.05;2.90;;;12.40;57.40;;;;;;4998249;28;20424;-80
2022/05/15 03:07:05;;;;;;;7.45;2.90;;;12.40;57.40;;;;;;4997281;28;20046;-80
2022/05/15 03:09:31;;;;;;;8.40;2.83;;;12.40;57.40;;;;;;4995937;28;20047;-80
2022/05/15 03:11:57;;;;;;;8.15;3.35;;;12.30;57.40;;;;;;5013503;28;20141;-80
2022/05/15 03:14:23;;;;;;;9.40;3.55;;;12.30;57.50;;;;;;5014165;28;20120;-81
2022/05/15 03:16:48;;;;;;;6.97;3.03;;;12.30;57.60;;;;;;4997709;28;20122;-81
2022/05/15 03:19:14;;;;;;;9.43;2.83;;;12.30;57.60;;;;;;5013582;28;20042;-80
2022/05/15 03:21:40;;;;;;;8.82;3.13;;;12.30;57.60;;;;;;5002730;28;20049;-80
2022/05/15 03:24:09;;;;;;;9.40;3.40;;;12.20;57.60;;;;;;4995783;28;20490;-80
2022/05/15 03:26:45;;;;;;;8.80;3.60;;;12.30;57.70;;;;;;4989842;28;20042;-79
2022/05/15 03:29:13;;;;;;;15.20;4.57;;;12.20;57.70;;;;;;5013852;28;20485;-78
2022/05/15 03:31:40;;;;;;;11.57;3.90;;;12.20;57.70;;;;;;4977983;28;20453;-79
2022/05/15 03:34:07;;;;;;;11.07;4.32;;;12.20;57.70;;;;;;4999356;28;20060;-78
2022/05/15 03:36:34;;;;;;;5.65;2.63;;;12.10;57.70;;;;;;5011693;28;20081;-79
2022/05/15 03:39:00;;;;;;;11.68;3.50;;;12.10;57.80;;;;;;4995793;28;20140;-79
2022/05/15 03:41:27;;;;;;;15.30;4.15;;;12.10;57.80;;;;;;4991200;28;20046;-79
2022/05/15 03:43:53;;;;;;;7.90;4.03;;;12.10;57.90;;;;;;4995247;28;20434;-79
2022/05/15 03:46:19;;;;;;;10.48;4.38;;;12.10;57.90;;;;;;4998796;28;20046;-80
2022/05/15 03:48:44;;;;;;;9.52;3.53;;;12.10;58.00;;;;;;4977630;28;20379;-80
2022/05/15 03:51:10;;;;;;;10.85;4.55;;;12.10;58.10;;;;;;5002633;28;20038;-79
2022/05/15 03:53:35;;;;;;;12.98;4.63;;;12.00;58.20;;;;;;5012048;28;20045;-80
2022/05/15 03:56:03;;;;;;;12.48;4.15;;;12.00;58.30;;;;;;5010061;28;20053;-79
2022/05/15 03:58:31;;;;;;;14.57;5.05;;;12.00;58.40;;;;;;4996245;28;20053;-80
2022/05/15 04:00:57;;;;;;;16.52;4.70;;;12.00;58.80;;;;;;5000947;28;20124;-79
2022/05/15 04:03:22;;;;;;;14.95;5.28;;;12.00;59.10;;;;;;4989206;28;20473;-80
2022/05/15 04:05:49;;;;;;;10.32;4.38;;;11.90;59.30;;;;;;4983179;28;20389;-79
2022/05/15 04:08:14;;;;;;;14.73;3.97;;;11.90;59.50;;;;;;4994342;28;20116;-79
2022/05/15 04:10:40;;;;;;;9.55;4.07;;;11.90;59.50;;;;;;4987516;28;20162;-80
2022/05/15 04:13:06;;;;;;;13.43;5.43;;;11.80;59.50;;;;;;4998669;28;20046;-79
2022/05/15 04:15:32;;;;;;;21.58;6.22;;;11.90;59.90;;;;;;4995099;28;20393;-80
2022/05/15 04:17:58;;;;;;;19.13;6.03;;;11.80;60.10;;;;;;4994781;28;20046;-80
2022/05/15 04:20:27;;;;;;;19.38;6.35;;;11.80;60.40;;;;;;4996513;28;20120;-79
2022/05/15 04:22:54;;;;;;;20.92;6.60;;;11.80;60.90;;;;;;4994609;28;20042;-79
2022/05/15 04:25:21;;;;;;;17.50;6.38;;;11.80;61.30;;;;;;5005008;28;20128;-79
2022/05/15 04:27:47;;;;;;;19.25;6.30;;;11.60;61.60;;;;;;4977626;28;20482;-80
2022/05/15 04:30:16;;;;;;;19.58;7.13;;;11.60;62.10;;;;;;5009554;28;20049;-80
2022/05/15 04:32:42;;;;;;;22.23;6.38;;;11.50;62.50;;;;;;4999341;28;20484;-79
2022/05/15 04:35:08;;;;;;;16.50;5.70;;;11.40;63.30;;;;;;5014803;28;20137;-79
2022/05/15 04:37:35;;;;;;;14.15;5.43;;;11.40;63.10;;;;;;4997686;28;20125;-80
2022/05/15 04:40:01;;;;;;;14.23;4.75;;;11.40;63.40;;;;;;4995220;28;20050;-80
2022/05/15 04:42:26;;;;;;;24.70;7.78;;;11.30;63.30;;;;;;5007020;28;20037;-80
2022/05/15 04:44:52;;;;;;;24.25;7.40;;;11.40;63.70;;;;;;5007193;28;20397;-80
2022/05/15 04:47:18;;;;;;;17.65;6.60;;;11.30;64.00;;;;;;4991996;28;20136;-80
2022/05/15 04:49:44;;;;;;;15.25;5.40;;;11.30;64.90;;;;;;5013214;28;20046;-79
2022/05/15 04:52:10;;;;;;;17.13;5.75;;;11.30;64.50;;;;;;5009143;28;20117;-78
2022/05/15 04:54:37;;;;;;;17.80;5.90;;;11.30;64.40;;;;;;4994888;28;20046;-79
2022/05/15 04:57:03;;;;;;;19.83;6.50;;;11.30;64.70;;;;;;5011823;28;20180;-79
2022/05/15 04:59:29;;;;;;;16.60;6.47;;;11.40;65.10;;;;;;5003857;28;20046;-79
2022/05/15 05:01:55;;;;;;;20.70;6.32;;;11.40;65.30;;;;;;5001158;28;20049;-79
2022/05/15 05:04:21;;;;;;;23.98;7.55;;;11.40;65.50;;;;;;5006753;28;20034;-78
2022/05/15 05:06:47;;;;;;;19.27;6.60;;;11.40;66.00;;;;;;4977929;28;20054;-79
2022/05/15 05:09:13;;;;;;;19.95;6.53;;;11.50;66.60;;;;;;5014195;28;20053;-79
2022/05/15 05:11:39;;;;;;;22.85;6.40;;;11.50;66.90;;;;;;4994575;28;20058;-79
2022/05/15 05:14:05;;;;;;;20.25;6.80;;;11.70;67.30;;;;;;4993213;28;20065;-79
2022/05/15 05:16:33;;;;;;;19.55;6.05;;;11.90;67.40;;;;;;5012049;28;20042;-79
2022/05/15 05:18:59;;;;;;;19.20;6.75;;;12.10;67.20;;;;;;4997342;28;20038;-80
2022/05/15 05:21:24;;;;;;;19.77;6.10;;;12.40;66.60;;;;;;5010984;28;20413;-80
2022/05/15 05:23:50;;;;;;;22.00;6.47;;;12.50;66.10;;;;;;4975879;28;20053;-80
2022/05/15 05:26:16;;;;;;;18.85;6.65;;;12.60;65.90;;;;;;4977244;28;20101;-79
2022/05/15 05:28:42;;;;;;;19.65;7.05;;;12.80;65.70;;;;;;5013288;28;20041;-79
2022/05/15 05:31:08;;;;;;;19.70;6.32;;;13.00;65.40;;;;;;5002437;28;20038;-81
2022/05/15 05:33:34;;;;;;;19.83;6.03;;;13.10;64.90;;;;;;4986492;28;20069;-80
2022/05/15 05:36:00;;;;;;;18.30;6.00;;;13.30;64.70;;;;;;5001775;28;20042;-80
2022/05/15 05:38:25;;;;;;;21.08;6.40;;;13.40;64.30;;;;;;4994222;28;20096;-79
2022/05/15 05:40:51;;;;;;;22.23;6.65;;;13.60;63.70;;;;;;5014362;28;20053;-79
2022/05/15 05:43:17;;;;;;;23.20;6.45;;;13.70;63.20;;;;;;5007066;28;20125;-79
2022/05/15 05:45:42;;;;;;;19.00;6.90;;;13.80;62.80;;;;;;4995403;28;20124;-79
2022/05/15 05:48:08;;;;;;;18.15;5.32;;;13.80;62.70;;;;;;5011888;28;20472;-79
2022/05/15 05:50:36;;;;;;;19.95;6.07;;;13.90;62.60;;;;;;5015027;28;20404;-79
2022/05/15 05:53:01;;;;;;;24.75;7.22;;;14.00;62.20;;;;;;5001488;28;20058;-79
2022/05/15 05:55:27;;;;;;;17.35;6.07;;;14.10;61.90;;;;;;4977605;28;20089;-79
2022/05/15 05:57:53;;;;;;;23.67;7.90;;;14.20;61.70;;;;;;4994739;28;20053;-79
2022/05/15 06:00:28;;;;;;;20.40;5.80;;;14.20;61.60;;;;;;4995456;28;20478;-79
2022/05/15 06:05:39;;;;;;;20.08;6.15;;;14.40;60.90;;;;;;5004685;28;20049;-80
2022/05/15 06:08:05;;;;;;;20.60;5.93;;;14.60;60.60;;;;;;5011658;28;20396;-80
2022/05/15 06:10:31;;;;;;;15.98;6.30;;;14.50;60.20;;;;;;4998239;28;20054;-80
2022/05/15 06:12:56;;;;;;;15.85;6.32;;;14.60;60.00;;;;;;4996651;28;20050;-80
2022/05/15 06:15:22;;;;;;;21.40;6.53;;;14.60;59.80;;;;;;4986643;28;20081;-81
2022/05/15 06:17:47;;;;;;;18.02;6.78;;;14.70;59.40;;;;;;5003174;28;20404;-79
2022/05/15 06:20:13;;;;;;;16.73;6.43;;;14.70;59.40;;;;;;4996542;28;20129;-80
2022/05/15 06:22:39;;;;;;;24.88;5.80;;;14.80;59.50;;;;;;4997385;28;20078;-80
2022/05/15 06:25:05;;;;;;;18.02;6.10;;;14.90;59.60;;;;;;5017475;28;20440;-81
2022/05/15 06:27:31;;;;;;;22.52;5.68;;;15.00;59.50;;;;;;5015658;28;20100;-80
2022/05/15 06:29:58;;;;;;;18.73;6.13;;;15.10;59.40;;;;;;5014764;28;20397;-81
2022/05/15 06:32:25;;;;;;;15.20;6.10;;;15.30;59.20;;;;;;5016485;28;20052;-80
2022/05/15 06:34:51;;;;;;;20.95;6.55;;;15.50;58.70;;;;;;5013830;28;20081;-81
2022/05/15 06:37:16;;;;;;;19.63;5.85;;;15.80;58.50;;;;;;5017470;28;20454;-80
2022/05/15 06:39:42;;;;;;;17.92;5.55;;;15.90;58.10;;;;;;4984605;28;20489;-80
2022/05/15 06:42:08;;;;;;;15.52;6.20;;;16.10;58.20;;;;;;5011060;28;20586;-80
2022/05/15 06:44:34;;;;;;;17.90;5.78;;;16.40;57.80;;;;;;5015648;28;20073;-79
2022/05/15 06:46:59;;;;;;;19.63;6.28;;;16.70;57.10;;;;;;5010720;28;20092;-80
2022/05/15 06:49:25;;;;;;;15.80;5.53;;;16.90;56.70;;;;;;4989032;28;20498;-80
2022/05/15 06:51:50;;;;;;;16.63;4.80;;;17.00;56.50;;;;;;4992325;28;20050;-80
2022/05/15 06:54:17;;;;;;;14.93;5.50;;;17.10;56.30;;;;;;5005645;28;20049;-80
2022/05/15 06:59:27;;;;;;;18.55;5.43;;;17.50;55.60;;;;;;4996453;28;20045;-80
2022/05/15 07:01:52;;;;;;;14.88;5.10;;;17.70;55.10;;;;;;4985624;28;20417;-80
2022/05/15 07:04:18;;;;;;;14.90;4.45;;;17.80;54.80;;;;;;5009408;28;20038;-80
2022/05/15 07:06:44;;;;;;;15.02;4.93;;;17.90;53.80;;;;;;5010263;28;20102;-80
2022/05/15 07:09:09;;;;;;;16.30;5.13;;;18.00;53.90;;;;;;5013492;28;20085;-79
2022/05/15 07:11:35;;;;;;;15.43;4.97;;;18.10;53.90;;;;;;4986475;28;20054;-79
2022/05/15 07:14:01;;;;;;;13.15;3.95;;;18.20;53.70;;;;;;5021675;28;20511;-80
2022/05/15 07:16:26;;;;;;;10.63;4.25;;;18.40;53.60;;;;;;5008403;28;20031;-80
2022/05/15 07:18:52;;;;;;;13.40;4.75;;;18.70;53.20;;;;;;5006613;28;20046;-80
2022/05/15 07:21:18;;;;;;;15.00;4.30;;;18.80;52.50;;;;;;5011335;28;20038;-80
2022/05/15 07:23:44;;;;;;;17.75;4.72;;;18.90;51.80;;;;;;5000620;28;20458;-80
2022/05/15 07:26:10;;;;;;;12.63;4.22;;;18.90;51.70;;;;;;5001091;28;20198;-81
2022/05/15 07:28:35;;;;;;;15.10;5.35;;;19.00;51.70;;;;;;4984044;28;20128;-79
2022/05/15 07:31:01;;;;;;;12.50;4.53;;;19.10;51.80;;;;;;4984339;28;20058;-79
2022/05/15 07:33:27;;;;;;;12.57;4.22;;;19.20;51.90;;;;;;4990910;28;20042;-80
2022/05/15 07:35:56;;;;;;;10.70;3.70;;;19.40;51.80;;;;;;5012194;28;20060;-80
2022/05/15 07:38:23;;;;;;;11.43;4.30;;;19.60;51.60;;;;;;5001093;28;20049;-80
2022/05/15 07:40:49;;;;;;;14.38;4.55;;;19.80;51.10;;;;;;4983972;28;20052;-81
2022/05/15 07:43:15;;;;;;;11.85;4.20;;;19.90;50.10;;;;;;5012442;28;20133;-81
2022/05/15 07:45:41;;;;;;;15.68;4.47;;;19.90;50.20;;;;;;4996412;28;20068;-79
2022/05/15 07:48:07;;;;;;;10.38;3.58;;;20.00;50.10;;;;;;5007267;28;20490;-77
2022/05/15 07:50:34;;;;;;;13.73;4.45;;;20.00;50.40;;;;;;5001754;28;20042;-78
2022/05/15 07:53:00;;;;;;;12.90;4.68;;;20.10;50.30;;;;;;5012506;28;20096;-79
2022/05/15 07:55:26;;;;;;;11.73;4.07;;;20.20;49.50;;;;;;5001992;28;20069;-79
2022/05/15 07:57:52;;;;;;;13.32;4.38;;;20.20;49.00;;;;;;4989781;28;20065;-79
2022/05/15 08:00:18;;;;;;;12.63;3.53;;;20.20;48.60;;;;;;4977021;28;20046;-79
2022/05/15 08:02:44;;;;;;;17.48;4.97;;;20.20;47.80;;;;;;4993555;28;20049;-80
2022/05/15 08:08:05;;;;;;;12.52;4.03;;;20.30;48.80;;;;;;4983129;28;20050;-77
2022/05/15 08:10:37;;;;;;;12.05;3.90;;;20.30;48.10;;;;;;4999783;28;20089;-78
2022/05/15 08:13:04;;;;;;;12.68;3.67;;;20.20;47.60;;;;;;5007500;28;20104;-77
2022/05/15 08:15:30;;;;;;;15.50;4.32;;;20.20;48.40;;;;;;4987462;28;20045;-79
2022/05/15 08:23:33;;;;;;;14.43;3.70;;;20.30;47.50;;;;;;4995851;28;20053;-79
2022/05/15 08:23:36;;;;;;;13.68;4.70;;;20.30;47.30;;;;;;5011720;28;20077;-80
2022/05/15 08:26:05;;;;;;;11.18;4.38;;;20.40;47.70;;;;;;5002904;28;20054;-78
2022/05/15 08:28:33;;;;;;;13.85;4.35;;;20.50;47.70;;;;;;4991844;28;20050;-79
2022/05/15 08:30:58;;;;;;;14.45;4.78;;;20.60;47.40;;;;;;5013703;28;20092;-80
2022/05/15 08:33:24;;;;;;;12.23;4.20;;;20.70;46.60;;;;;;5003768;28;20074;-78
2022/05/15 08:35:50;;;;;;;13.98;4.53;;;20.80;46.40;;;;;;5006868;28;20038;-80
2022/05/15 08:38:16;;;;;;;13.55;4.32;;;20.90;46.20;;;;;;4992378;28;20045;-80
2022/05/15 08:40:53;;;;;;;14.70;4.25;;;20.90;44.90;;;;;;5007390;28;20042;-80
2022/05/15 08:43:21;;;;;;;14.15;4.43;;;21.00;44.90;;;;;;5000514;28;20057;-80
2022/05/15 08:46:16;;;;;;;16.92;5.13;;;21.00;44.80;;;;;;5014519;28;20061;-79
2022/05/15 08:48:41;;;;;;;12.70;3.92;;;21.10;44.60;;;;;;4996849;28;20046;-80
2022/05/15 08:51:12;;;;;;;13.07;4.25;;;21.20;44.90;;;;;;4988736;28;20116;-80
2022/05/15 08:53:41;;;;;;;16.90;5.32;;;21.40;45.50;;;;;;4998567;28;20122;-80
2022/05/15 08:56:08;;;;;;;15.35;5.00;;;21.50;46.20;;;;;;4996620;28;20046;-79
2022/05/15 08:58:48;;;;;;;13.50;4.38;;;21.60;44.70;;;;;;5012561;28;20049;-79
2022/05/15 09:01:18;;;;;;;13.77;4.50;;;21.60;44.50;;;;;;5013718;28;20088;-79
2022/05/15 09:03:43;;;;;;;11.48;4.00;;;21.50;44.60;;;;;;4992817;28;20401;-79
2022/05/15 09:06:15;;;;;;;18.25;5.20;;;21.50;44.10;;;;;;5012237;28;20053;-79
2022/05/15 09:08:49;;;;;;;14.95;3.83;;;21.40;44.60;;;;;;5012047;28;20042;-79
2022/05/15 09:11:39;;;;;;;16.58;4.90;;;21.50;45.10;;;;;;4994524;28;20062;-80
2022/05/15 09:14:42;;;;;;;16.63;4.57;;;21.70;44.20;;;;;;4992069;28;20502;-80
2022/05/15 09:17:24;;;;;;;16.55;5.20;;;21.70;43.20;;;;;;4988117;28;20548;-79
2022/05/15 09:19:56;;;;;;;14.88;4.30;;;21.70;43.80;;;;;;4979018;28;20121;-80
2022/05/15 09:22:26;;;;;;;13.07;4.15;;;21.60;43.20;;;;;;5008357;28;20042;-80
2022/05/15 09:24:52;;;;;;;17.95;4.65;;;21.60;43.90;;;;;;4994080;28;20042;-80
2022/05/15 09:27:22;;;;;;;14.45;4.05;;;21.70;43.60;;;;;;5012755;28;20076;-78
2022/05/15 09:29:59;;;;;;;15.02;4.57;;;21.70;43.00;;;;;;4990167;28;20125;-78
2022/05/15 09:32:35;;;;;;;17.92;5.13;;;21.80;44.00;;;;;;4984482;28;20405;-77
2022/05/15 09:35:02;;;;;;;15.80;4.78;;;21.90;44.80;;;;;;4999866;28;20069;-77
2022/05/15 09:40:35;;;;;;;13.30;4.57;;;22.20;43.20;;;;;;5003026;28;20121;-76
2022/05/15 09:45:54;;;;;;;;;;;22.30;42.00;;;;;;4986986;28;20049;-76
2022/05/15 09:48:26;;;;;;;15.05;5.45;;;22.10;42.50;;;;;;5015208;28;19925;-76
2022/05/15 09:50:57;;;;;;;14.75;4.47;;;22.00;43.30;;;;;;5016588;28;20400;-76
2022/05/15 09:53:26;;;;;;;15.82;4.38;;;22.00;42.70;;;;;;4998116;28;20057;-77
2022/05/15 09:56:02;;;;;;;21.10;6.05;;;22.00;42.70;;;;;;5006950;28;20081;-78
2022/05/15 09:58:38;;;;;;;13.65;4.30;;;22.10;42.60;;;;;;4996070;28;20060;-79
2022/05/15 10:01:33;;;;;;;14.52;4.55;;;22.30;42.60;;;;;;4997509;28;20047;-79
2022/05/15 10:04:00;;;;;;;16.95;5.20;;;22.40;41.70;;;;;;4937934;29;20119;-80
2022/05/15 10:06:30;;;;;;;15.35;4.45;;;22.40;42.30;;;;;;4937006;29;20097;-79
2022/05/15 10:09:31;;;;;;;16.17;4.35;;;22.50;41.90;;;;;;4936497;28;20051;-79
2022/05/15 10:12:02;;;;;;;13.73;4.45;;;22.70;42.30;;;;;;4879588;29;20056;-79
2022/05/15 10:14:43;;;;;;;17.17;5.10;;;22.70;41.40;;;;;;4864494;29;20072;-80
2022/05/15 10:17:11;;;;;;;16.77;5.15;;;22.70;41.20;;;;;;4853076;29;20058;-80
2022/05/15 10:20:01;;;;;;;16.25;4.20;;;22.70;41.00;;;;;;4880427;29;20041;-79
2022/05/15 10:22:59;;;;;;;15.60;4.60;;;22.80;41.00;;;;;;4880511;29;20470;-79
2022/05/15 10:25:45;;;;;;;13.48;4.55;;;22.80;41.30;;;;;;4830541;29;20402;-79
2022/05/15 10:28:25;;;;;;;15.43;4.85;;;22.70;42.20;;;;;;4823351;29;20058;-79
2022/05/15 10:31:18;;;;;;;11.05;3.60;;;22.80;41.40;;;;;;4824314;29;20042;-79
2022/05/15 10:33:48;;;;;;;14.65;4.05;;;22.90;40.90;;;;;;4810755;29;20392;-79
2022/05/15 10:36:29;;;;;;;15.00;4.90;;;22.90;41.00;;;;;;4828252;29;20077;-78
2022/05/15 10:39:19;;;;;;;12.43;3.90;;;23.10;40.80;;;;;;4824954;29;20050;-79
2022/05/15 10:42:32;;;;;;;17.55;4.50;;;23.20;40.10;;;;;;4841056;29;20186;-78
2022/05/15 10:45:21;;;;;;;12.68;3.70;;;23.10;40.90;;;;;;4806512;29;20055;-78
2022/05/15 10:48:07;;;;;;;14.10;4.00;;;23.20;40.80;;;;;;4809736;29;20054;-77
2022/05/15 10:50:47;;;;;;;12.35;3.40;;;23.30;40.50;;;;;;4843259;29;20395;-78
2022/05/15 10:59:34;;;;;;;14.43;4.03;;;23.30;39.80;;;;;;4845158;29;20418;-72
2022/05/15 11:02:21;;;;;;;12.13;4.28;;;23.30;39.80;;;;;;4883181;29;20071;-77
2022/05/15 11:05:01;;;;;;;12.73;4.53;;;23.40;39.70;;;;;;4916582;29;20076;-78
2022/05/15 11:07:38;;;;;;;15.95;4.88;;;23.50;40.00;;;;;;4915617;29;20048;-77
2022/05/15 11:10:14;;;;;;;13.02;4.40;;;23.60;40.00;;;;;;4889120;29;20172;-78
2022/05/15 11:12:55;;;;;;;12.60;4.05;;;23.60;39.20;;;;;;4891177;29;20048;-77
2022/05/15 11:15:56;;;;;;;14.57;4.03;;;23.70;38.70;;;;;;4913460;29;20060;-78
2022/05/15 11:18:43;;;;;;;12.18;3.70;;;23.80;39.20;;;;;;4894318;29;20121;-79
2022/05/15 11:21:36;;;;;;;16.33;4.13;;;23.60;38.40;;;;;;4965277;28;20046;-77
2022/05/15 11:24:06;;;;;;;12.43;4.35;;;23.60;38.60;;;;;;4995101;28;20050;-78
2022/05/15 11:26:41;;;;;;;12.93;3.75;;;23.50;37.70;;;;;;5028138;28;20049;-78
2022/05/15 11:29:12;;;;;;;9.52;3.17;;;23.50;37.30;;;;;;5007658;28;20553;-78
2022/05/15 11:31:49;;;;;;;13.55;4.35;;;23.40;36.50;;;;;;5012727;28;20033;-78
2022/05/15 11:34:14;;;;;;;15.50;4.07;;;23.50;36.90;;;;;;5002917;28;20089;-79
2022/05/15 11:36:43;;;;;;;10.95;3.80;;;23.40;36.70;;;;;;4985534;28;20084;-79
2022/05/15 11:39:15;;;;;;;15.25;3.88;;;23.30;36.20;;;;;;5025201;28;20083;-77
2022/05/15 11:42:14;;;;;;;12.35;4.13;;;23.30;36.70;;;;;;5022000;28;20088;-78
2022/05/15 11:44:44;;;;;;;11.77;4.40;;;23.30;37.80;;;;;;5011381;28;20160;-81
2022/05/15 11:47:22;;;;;;;14.20;3.88;;;23.50;37.80;;;;;;5018462;28;20129;-81
2022/05/15 11:50:37;;;;;;;15.13;3.67;;;23.50;37.30;;;;;;5003166;28;20042;-81
2022/05/15 11:53:08;;;;;;;14.52;4.53;;;23.50;38.10;;;;;;4920220;29;20101;-82
2022/05/15 11:55:36;;;;;;;12.27;3.58;;;23.60;37.50;;;;;;4923465;29;20102;-79
2022/05/15 11:58:47;;;;;;;10.82;3.60;;;23.50;37.30;;;;;;4917885;29;20059;-81
2022/05/15 12:01:38;;;;;;;10.23;3.58;;;23.50;36.30;;;;;;4871565;29;20057;-81
2022/05/15 12:04:18;;;;;;;12.80;4.00;;;23.50;37.20;;;;;;4870746;29;20184;-81
2022/05/15 12:06:49;;;;;;;12.15;4.53;;;23.60;36.80;;;;;;4870777;29;20045;-79
2022/05/15 12:09:17;;;;;;;12.93;4.35;;;23.50;37.40;;;;;;4887565;29;20097;-80
2022/05/15 12:11:45;;;;;;;10.90;3.72;;;23.40;36.90;;;;;;4892697;29;20052;-80
2022/05/15 12:14:26;;;;;;;13.85;4.28;;;23.40;38.10;;;;;;4885708;29;20155;-80
2022/05/15 12:17:04;;;;;;;14.60;4.45;;;23.40;37.10;;;;;;4865388;29;20525;-80
2022/05/15 12:19:38;;;;;;;12.70;3.72;;;23.40;37.30;;;;;;4878500;29;20081;-80
2022/05/15 12:22:11;;;;;;;10.48;3.58;;;23.40;36.80;;;;;;4867704;29;20056;-81
2022/05/15 12:24:38;;;;;;;11.95;4.00;;;23.40;37.30;;;;;;4888533;29;20476;-80
2022/05/15 12:27:12;;;;;;;8.18;3.53;;;23.40;36.60;;;;;;4891184;29;20080;-80
2022/05/15 12:29:45;;;;;;;11.20;3.53;;;23.30;36.80;;;;;;4905379;29;20083;-80
2022/05/15 12:32:19;;;;;;;11.00;3.67;;;23.40;36.30;;;;;;4916741;29;20044;-80
2022/05/15 12:34:48;;;;;;;10.70;3.38;;;23.40;36.90;;;;;;4958609;28;20076;-80
2022/05/15 12:37:30;;;;;;;8.13;2.80;;;23.50;35.90;;;;;;5009143;28;20122;-80
2022/05/15 12:39:59;;;;;;;11.15;3.30;;;23.60;35.40;;;;;;4977889;28;20046;-81
2022/05/15 12:42:38;;;;;;;11.93;3.13;;;23.70;35.50;;;;;;5000733;28;20089;-81
2022/05/15 12:45:18;;;;;;;13.43;3.83;;;23.80;36.00;;;;;;4991783;28;20046;-81
2022/05/15 12:47:43;;;;;;;13.70;3.53;;;23.80;35.70;;;;;;4991453;28;20046;-81
2022/05/15 12:50:20;;;;;;;12.38;3.90;;;23.70;36.10;;;;;;5011796;28;20045;-80
2022/05/15 12:52:55;;;;;;;9.77;3.80;;;23.70;36.10;;;;;;4995874;28;20046;-79
2022/05/15 12:55:41;;;;;;;8.75;3.38;;;23.80;36.30;;;;;;4987863;28;20042;-80
2022/05/15 12:58:07;;;;;;;9.57;3.88;;;23.90;35.70;;;;;;5006283;28;20064;-80
2022/05/15 13:00:42;;;;;;;15.10;4.30;;;24.00;35.30;;;;;;5019340;28;20043;-82
2022/05/15 13:03:12;;;;;;;10.43;3.88;;;23.90;35.20;;;;;;5002040;28;20069;-84
2022/05/15 13:06:00;;;;;;;14.10;4.22;;;23.90;35.60;;;;;;4998929;28;20050;-83
2022/05/15 13:08:26;;;;;;;12.00;3.85;;;24.00;35.30;;;;;;5012760;28;20137;-81
2022/05/15 13:11:00;;;;;;;10.65;4.22;;;23.90;33.90;;;;;;5014226;28;20541;-82
2022/05/15 13:13:34;;;;;;;8.98;3.72;;;23.90;34.50;;;;;;5017978;28;20129;-81
2022/05/15 13:16:00;;;;;;;11.25;4.13;;;23.90;34.70;;;;;;5015064;28;20508;-81
2022/05/15 13:18:32;;;;;;;14.20;4.38;;;23.90;34.60;;;;;;5003743;28;20056;-82
2022/05/15 13:21:09;;;;;;;11.45;3.70;;;23.90;35.40;;;;;;4984891;28;20062;-81